createdAt,value
2022-11-24T06:30:33.344Z,100179.72
2022-11-24T06:33:26.824Z,100174.81
2022-11-24T06:50:23.652Z,100186.47
2022-11-24T07:04:48.550Z,100213.13
2022-11-24T07:08:21.559Z,100203.03
2022-11-24T07:11:41.860Z,100204.16
2022-11-24T07:17:53.675Z,100205.25
2022-11-24T07:20:57.490Z,100217.84
2022-11-24T07:23:54.142Z,100218.50
2022-11-24T07:27:09.619Z,100217.56
2022-11-24T07:29:58.641Z,100219.00
2022-11-24T07:32:47.383Z,100222.50
2022-11-24T07:35:45.560Z,100223.13
2022-11-24T07:46:05.303Z,100228.56
2022-11-24T07:52:38.741Z,100228.56
2022-11-24T07:55:55.743Z,100230.31
2022-11-24T07:58:38.544Z,100239.09
2022-11-24T08:04:52.292Z,100236.66
2022-11-24T08:07:31.867Z,100241.63
2022-11-24T08:10:03.585Z,100245.13
2022-11-24T08:16:01.681Z,100241.44
2022-11-24T08:18:42.567Z,100236.16
2022-11-24T08:21:27.419Z,100248.44
2022-11-24T08:24:36.251Z,100248.09
2022-11-24T08:27:22.807Z,100239.94
2022-11-24T08:29:58.921Z,100240.13
2022-11-24T08:35:48.447Z,100249.25
2022-11-24T08:38:24.645Z,100256.13
2022-11-24T08:44:06.918Z,100261.44
2022-11-24T08:46:37.044Z,100259.47
2022-11-24T08:49:10.917Z,100254.06
2022-11-24T08:51:54.494Z,100254.06
2022-11-24T08:54:28.314Z,100269.84
2022-11-24T08:57:05.539Z,100277.06
2022-11-24T08:59:38.187Z,100280.09
2022-11-24T09:02:16.302Z,100277.06
2022-11-24T09:04:49.697Z,100279.13
2022-11-24T09:07:22.127Z,100274.31
2022-11-24T09:09:54.345Z,100286.63
2022-11-24T09:12:24.657Z,100292.19
2022-11-24T09:14:56.815Z,100290.91
2022-11-24T09:17:29.982Z,100296.16
2022-11-24T09:22:57.910Z,100302.22
2022-11-24T09:25:26.656Z,100302.22
2022-11-24T09:28:00.797Z,100291.50
2022-11-24T09:30:45.957Z,100292.31
2022-11-24T09:33:25.444Z,100293.94
2022-11-24T09:36:00.130Z,100299.09
2022-11-24T09:38:31.445Z,100291.25
2022-11-24T09:44:24.827Z,100301.97
2022-11-24T09:50:13.578Z,100308.72
2022-11-24T09:52:53.544Z,100310.81
2022-11-24T09:55:57.184Z,100315.28
2022-11-24T09:58:50.186Z,100319.13
2022-11-24T10:01:28.081Z,100318.16
2022-11-24T10:04:06.247Z,100313.34
2022-11-24T10:07:09.441Z,100312.56
2022-11-24T10:15:32.981Z,100318.00
2022-11-24T10:21:47.766Z,100324.69
2022-11-24T12:37:31.606Z,100405.28
2022-11-24T13:44:36.262Z,59042.03
2022-11-24T13:48:31.323Z,59042.03
